Time;durP1;ratioP1;P1;durP2;ratioP2;P2;SDS_P1;SDS_P2;PMS_P1;PMS_P2;Temp;Humidity;BMP_temperature;BMP_pressure;BME280_temperature;BME280_humidity;BME280_pressure;Samples;Min_cycle;Max_cycle;Signal;HPM_P1;HPM_P2
2024/03/05 00:00:22;;;;;;;10.48;5.80;;;12.70;68.10;;;;;;2317294;55;21317;-66
2024/03/05 00:02:51;;;;;;;11.57;5.87;;;12.70;68.20;;;;;;2339315;54;20949;-68
2024/03/05 00:05:18;;;;;;;11.25;5.28;;;12.70;68.20;;;;;;2326233;54;20974;-66
2024/03/05 00:07:44;;;;;;;9.40;5.40;;;12.70;68.20;;;;;;2574040;53;21281;-65
2024/03/05 00:10:11;;;;;;;10.27;5.30;;;12.70;68.20;;;;;;2309627;55;21052;-67
2024/03/05 00:12:37;;;;;;;10.50;5.35;;;12.70;68.20;;;;;;2326171;54;21024;-65
2024/03/05 00:15:07;;;;;;;10.80;5.70;;;12.70;68.20;;;;;;2340006;54;21760;-64
2024/03/05 00:17:33;;;;;;;10.15;5.78;;;12.70;68.20;;;;;;2339262;54;20977;-67
2024/03/05 00:19:59;;;;;;;10.68;6.03;;;12.70;68.20;;;;;;2340046;54;20941;-66
2024/03/05 00:22:26;;;;;;;10.50;5.68;;;12.70;68.20;;;;;;2586290;53;21052;-66
2024/03/05 00:24:52;;;;;;;12.57;6.57;;;12.70;68.20;;;;;;2339831;54;21012;-65
2024/03/05 00:27:18;;;;;;;11.02;6.43;;;12.70;68.20;;;;;;2585855;53;20948;-67
2024/03/05 00:29:46;;;;;;;12.13;5.70;;;12.70;68.20;;;;;;2340027;54;21478;-66
2024/03/05 00:32:12;;;;;;;12.77;6.18;;;12.70;68.20;;;;;;2340630;54;20948;-67
2024/03/05 00:34:39;;;;;;;14.35;6.82;;;12.70;68.20;;;;;;2585392;53;20948;-67
2024/03/05 00:37:05;;;;;;;11.52;5.78;;;12.70;68.10;;;;;;2552487;53;20946;-65
2024/03/05 00:39:32;;;;;;;14.93;7.07;;;12.70;68.10;;;;;;2339516;54;20948;-67
2024/03/05 00:41:58;;;;;;;15.13;7.78;;;12.70;68.10;;;;;;2318009;54;21432;-67
2024/03/05 00:44:26;;;;;;;15.48;8.00;;;12.70;68.00;;;;;;2339222;54;21466;-65
2024/03/05 00:46:52;;;;;;;13.73;7.25;;;12.70;68.80;;;;;;2339842;54;21264;-68
2024/03/05 00:49:19;;;;;;;13.15;7.07;;;12.70;68.10;;;;;;2340003;54;21748;-68
2024/03/05 00:51:47;;;;;;;14.30;7.32;;;12.70;68.10;;;;;;2339925;54;21432;-66
2024/03/05 00:54:13;;;;;;;11.57;5.57;;;12.70;68.10;;;;;;2306492;55;20943;-67
2024/03/05 00:56:41;;;;;;;14.55;6.35;;;12.70;68.20;;;;;;2328817;54;21057;-67
2024/03/05 00:59:08;;;;;;;12.07;6.80;;;12.70;68.20;;;;;;2339869;54;21479;-67
2024/03/05 01:01:34;;;;;;;11.82;6.65;;;12.70;68.20;;;;;;2339883;54;21466;-68
2024/03/05 01:04:01;;;;;;;12.90;6.40;;;12.70;68.20;;;;;;2339876;54;21449;-67
2024/03/05 01:06:27;;;;;;;14.05;7.62;;;12.70;68.20;;;;;;2339897;54;21284;-67
2024/03/05 01:08:54;;;;;;;12.07;6.80;;;12.70;68.20;;;;;;2339482;54;21032;-67
2024/03/05 01:11:20;;;;;;;13.35;7.25;;;12.70;68.20;;;;;;2340718;54;20941;-66
2024/03/05 01:13:46;;;;;;;14.75;7.95;;;12.60;68.00;;;;;;2339611;54;20964;-67
2024/03/05 01:16:13;;;;;;;14.00;6.87;;;12.60;68.10;;;;;;2340054;54;21034;-65
2024/03/05 01:18:39;;;;;;;13.57;7.57;;;12.60;68.10;;;;;;2340500;54;21303;-65
2024/03/05 01:21:06;;;;;;;15.75;7.07;;;12.60;68.40;;;;;;2340182;54;20940;-66
2024/03/05 01:23:32;;;;;;;10.90;6.40;;;12.60;68.10;;;;;;2339952;54;21618;-67
2024/03/05 01:25:59;;;;;;;12.02;6.47;;;12.60;68.10;;;;;;2585261;53;21016;-65
2024/03/05 01:28:28;;;;;;;12.50;6.65;;;12.60;68.20;;;;;;2339467;54;21067;-65
2024/03/05 01:30:54;;;;;;;11.80;6.53;;;12.60;68.20;;;;;;2340190;54;21025;-68
2024/03/05 01:33:21;;;;;;;13.52;6.65;;;12.70;68.40;;;;;;2339636;54;20936;-66
2024/03/05 01:35:48;;;;;;;12.15;6.10;;;12.70;68.40;;;;;;2320746;54;20942;-66
2024/03/05 01:38:18;;;;;;;11.40;5.70;;;12.70;68.30;;;;;;2325755;54;20937;-65
2024/03/05 01:40:44;;;;;;;12.52;6.85;;;12.70;68.30;;;;;;2307563;55;21031;-67
2024/03/05 01:43:11;;;;;;;11.93;5.78;;;12.70;68.40;;;;;;2308689;55;20939;-67
2024/03/05 01:45:38;;;;;;;11.50;6.37;;;12.70;68.30;;;;;;2546055;54;20971;-67
2024/03/05 01:48:04;;;;;;;10.77;5.55;;;12.70;68.30;;;;;;2307158;55;20971;-66
2024/03/05 01:50:35;;;;;;;12.95;6.47;;;12.70;68.30;;;;;;2306939;55;21039;-66
2024/03/05 01:53:09;;;;;;;13.45;5.82;;;12.70;68.30;;;;;;2546905;54;20999;-68
2024/03/05 01:55:37;;;;;;;12.70;6.50;;;12.70;68.10;;;;;;2546264;54;21371;-66
2024/03/05 01:58:04;;;;;;;12.35;6.60;;;12.70;68.20;;;;;;2306975;55;21462;-65
2024/03/05 02:00:31;;;;;;;12.37;6.80;;;12.70;68.20;;;;;;2306493;55;21046;-65
2024/03/05 02:02:57;;;;;;;12.45;6.28;;;12.70;68.30;;;;;;2287007;55;21233;-66
2024/03/05 02:05:23;;;;;;;12.82;6.75;;;12.70;68.20;;;;;;2306961;55;20999;-66
2024/03/05 02:07:53;;;;;;;11.75;6.87;;;12.70;68.30;;;;;;2308688;55;21073;-65
2024/03/05 02:10:20;;;;;;;13.52;7.37;;;12.70;68.20;;;;;;2281411;55;21177;-66
2024/03/05 02:12:46;;;;;;;14.50;6.37;;;12.70;68.20;;;;;;2308567;54;20943;-67
2024/03/05 02:15:13;;;;;;;13.13;6.78;;;12.80;68.40;;;;;;2311652;54;20990;-67
2024/03/05 02:17:40;;;;;;;14.93;7.32;;;12.70;68.20;;;;;;2301317;54;20999;-64
2024/03/05 02:20:09;;;;;;;15.32;7.97;;;12.70;68.20;;;;;;2308381;54;20955;-67
2024/03/05 02:22:38;;;;;;;12.98;7.37;;;12.70;68.20;;;;;;2308500;54;20971;-67
2024/03/05 02:25:08;;;;;;;12.65;7.05;;;12.80;68.30;;;;;;2547531;54;21003;-66
2024/03/05 02:27:36;;;;;;;16.17;8.48;;;12.70;68.20;;;;;;2547722;54;21043;-65
2024/03/05 02:30:09;;;;;;;11.35;6.95;;;12.70;68.20;;;;;;2308761;54;22320;-66
2024/03/05 02:32:40;;;;;;;11.98;7.12;;;12.70;68.20;;;;;;2308638;54;21811;-66
2024/03/05 02:35:08;;;;;;;13.90;7.65;;;12.70;68.10;;;;;;2307921;54;21278;-67
2024/03/05 02:37:38;;;;;;;14.70;7.78;;;12.70;68.20;;;;;;2547205;54;21410;-67
2024/03/05 02:40:11;;;;;;;14.23;7.72;;;12.70;68.10;;;;;;2308859;54;20983;-65
2024/03/05 02:42:37;;;;;;;14.00;8.07;;;12.70;67.90;;;;;;2308673;54;20959;-67
2024/03/05 02:45:07;;;;;;;18.40;9.43;;;12.70;68.10;;;;;;2547795;54;20943;-66
2024/03/05 02:47:37;;;;;;;15.02;8.18;;;12.70;68.10;;;;;;2308678;54;21059;-66
2024/03/05 02:50:11;;;;;;;14.10;8.40;;;12.70;68.00;;;;;;2308396;54;20979;-65
2024/03/05 02:52:38;;;;;;;15.63;8.77;;;12.70;68.00;;;;;;2308739;54;21283;-66
2024/03/05 02:55:09;;;;;;;16.00;8.43;;;12.70;68.20;;;;;;2308917;54;20947;-67
2024/03/05 02:57:40;;;;;;;15.07;8.00;;;12.70;68.10;;;;;;2548208;54;21488;-66
2024/03/05 03:00:18;;;;;;;16.70;9.90;;;12.70;68.10;;;;;;2308944;54;21532;-66
2024/03/05 03:02:51;;;;;;;15.27;8.02;;;12.70;68.20;;;;;;2308520;54;21501;-65
2024/03/05 03:05:17;;;;;;;;;;;12.70;68.10;;;;;;2312331;54;21003;-67
2024/03/05 03:07:43;;;;;;;11.05;6.05;;;12.70;67.50;;;;;;2308610;54;20471;-65
2024/03/05 03:10:11;;;;;;;12.02;6.70;;;12.70;68.20;;;;;;2307884;54;21584;-66
2024/03/05 03:12:38;;;;;;;14.40;7.45;;;12.70;68.20;;;;;;2308149;54;21046;-65
2024/03/05 03:15:06;;;;;;;14.60;7.45;;;12.70;68.20;;;;;;2308447;54;21035;-66
2024/03/05 03:17:33;;;;;;;15.80;7.85;;;12.70;68.20;;;;;;2308307;54;21421;-65
2024/03/05 03:20:00;;;;;;;12.40;7.60;;;12.70;68.20;;;;;;2307932;54;20988;-67
2024/03/05 03:22:26;;;;;;;14.10;7.68;;;12.70;68.20;;;;;;2546553;54;20964;-65
2024/03/05 03:24:53;;;;;;;15.60;8.23;;;12.70;68.20;;;;;;2308548;54;20980;-65
2024/03/05 03:27:20;;;;;;;17.48;9.73;;;12.70;68.20;;;;;;2308281;54;21031;-67
2024/03/05 03:29:46;;;;;;;13.35;7.87;;;12.70;68.20;;;;;;2302414;55;21851;-67
2024/03/05 03:32:14;;;;;;;15.88;8.30;;;12.70;68.20;;;;;;2307539;54;20955;-65
2024/03/05 03:34:40;;;;;;;20.50;8.52;;;12.70;68.20;;;;;;2308323;54;21544;-67
2024/03/05 03:37:07;;;;;;;14.55;7.85;;;12.70;68.20;;;;;;2307628;54;21023;-67
2024/03/05 03:39:36;;;;;;;17.27;9.00;;;12.70;68.20;;;;;;2308826;54;21051;-65
2024/03/05 03:42:02;;;;;;;15.90;8.30;;;12.70;68.10;;;;;;2307609;54;21399;-68
2024/03/05 03:44:29;;;;;;;14.57;8.30;;;12.70;68.10;;;;;;2307791;54;21378;-65
2024/03/05 03:46:55;;;;;;;15.02;8.20;;;12.70;68.10;;;;;;2308008;54;20939;-65
2024/03/05 03:49:25;;;;;;;13.93;8.18;;;12.70;68.10;;;;;;2308293;54;20941;-66
2024/03/05 03:51:53;;;;;;;14.30;8.48;;;12.70;68.10;;;;;;2522876;53;21017;-65
2024/03/05 03:54:22;;;;;;;15.00;8.20;;;12.70;68.00;;;;;;2578257;53;21236;-66
2024/03/05 03:56:49;;;;;;;15.23;8.63;;;12.70;68.00;;;;;;2334479;54;20953;-68
2024/03/05 03:59:15;;;;;;;15.48;8.07;;;12.70;67.90;;;;;;2579460;53;20957;-65
2024/03/05 04:01:48;;;;;;;15.82;9.35;;;12.70;67.90;;;;;;2334053;54;20968;-65
2024/03/05 04:04:15;;;;;;;14.95;8.65;;;12.70;67.70;;;;;;2578815;53;20940;-65
2024/03/05 04:06:42;;;;;;;14.05;8.70;;;12.60;67.70;;;;;;2311557;54;21817;-67
2024/03/05 04:09:09;;;;;;;15.27;9.93;;;12.60;67.70;;;;;;2330117;54;21016;-67
2024/03/05 04:11:36;;;;;;;13.43;9.30;;;12.60;67.60;;;;;;2313321;54;21432;-66
2024/03/05 04:14:02;;;;;;;10.45;7.07;;;12.60;67.60;;;;;;2328178;54;20964;-66
2024/03/05 04:16:30;;;;;;;14.18;9.73;;;12.50;67.50;;;;;;2334492;54;20949;-65
2024/03/05 04:18:57;;;;;;;15.68;10.48;;;12.50;67.60;;;;;;2317833;54;21363;-66
2024/03/05 04:21:24;;;;;;;13.15;8.68;;;12.50;67.50;;;;;;2568106;53;20941;-68
2024/03/05 04:23:53;;;;;;;16.73;9.90;;;12.50;67.70;;;;;;2333069;54;21132;-65
2024/03/05 04:26:23;;;;;;;14.55;9.05;;;12.50;67.40;;;;;;2310856;54;21670;-66
2024/03/05 04:28:52;;;;;;;15.48;9.90;;;12.50;67.50;;;;;;2579509;53;20957;-66
2024/03/05 04:31:30;;;;;;;14.55;8.95;;;12.50;67.50;;;;;;2580039;53;20953;-66
2024/03/05 04:33:59;;;;;;;13.73;8.77;;;12.40;67.20;;;;;;2334943;54;21683;-65
2024/03/05 04:36:25;;;;;;;14.60;9.10;;;12.40;67.40;;;;;;2579815;53;21489;-67
2024/03/05 04:38:52;;;;;;;14.45;9.95;;;12.40;67.40;;;;;;2579377;53;21308;-67
2024/03/05 04:41:18;;;;;;;15.13;9.65;;;12.40;67.50;;;;;;2335007;54;21327;-67
2024/03/05 04:43:45;;;;;;;13.25;8.13;;;12.40;67.50;;;;;;2334339;54;21941;-65
2024/03/05 04:46:11;;;;;;;12.95;8.20;;;12.40;67.50;;;;;;2334172;54;20972;-66
2024/03/05 04:48:38;;;;;;;15.43;9.05;;;12.40;67.50;;;;;;2336322;54;21384;-67
2024/03/05 04:51:08;;;;;;;13.25;9.13;;;12.40;67.50;;;;;;2335296;54;20938;-65
2024/03/05 04:53:38;;;;;;;12.75;9.02;;;12.40;67.40;;;;;;2579882;53;21152;-67
2024/03/05 04:56:06;;;;;;;14.98;9.23;;;12.30;67.20;;;;;;2334116;54;20981;-65
2024/03/05 04:58:32;;;;;;;14.23;9.13;;;12.20;67.10;;;;;;2334824;54;20961;-65
2024/03/05 05:00:59;;;;;;;14.30;8.63;;;12.30;67.20;;;;;;2334756;54;21544;-67
2024/03/05 05:03:26;;;;;;;11.65;7.43;;;12.30;67.20;;;;;;2334862;54;20957;-65
2024/03/05 05:05:54;;;;;;;11.30;7.55;;;12.30;67.20;;;;;;2334340;54;21471;-65
2024/03/05 05:08:20;;;;;;;13.13;8.35;;;12.30;67.20;;;;;;2536201;53;21029;-66
2024/03/05 05:10:47;;;;;;;12.32;7.90;;;12.30;67.20;;;;;;2554123;53;20948;-66
2024/03/05 05:13:14;;;;;;;14.65;8.55;;;12.20;67.10;;;;;;2578914;53;20945;-66
2024/03/05 05:15:40;;;;;;;11.30;7.57;;;12.20;67.00;;;;;;2334557;54;20973;-66
2024/03/05 05:18:06;;;;;;;12.57;8.20;;;12.20;67.10;;;;;;2307932;54;21251;-67
2024/03/05 05:20:33;;;;;;;13.13;8.13;;;12.20;67.10;;;;;;2334821;54;20930;-65
2024/03/05 05:22:59;;;;;;;13.40;8.07;;;12.20;67.10;;;;;;2334641;54;21016;-67
2024/03/05 05:25:25;;;;;;;12.63;8.55;;;12.20;67.10;;;;;;2334773;54;21004;-67
2024/03/05 05:27:51;;;;;;;14.85;8.90;;;12.20;67.10;;;;;;2334963;54;20956;-65
2024/03/05 05:30:21;;;;;;;12.07;8.18;;;12.20;67.00;;;;;;2334486;54;21048;-65
2024/03/05 05:32:47;;;;;;;11.88;8.00;;;12.20;67.00;;;;;;2578978;53;21284;-68
2024/03/05 05:35:14;;;;;;;13.68;8.63;;;12.20;67.10;;;;;;2578387;53;20921;-66
2024/03/05 05:37:41;;;;;;;12.20;7.95;;;12.20;67.10;;;;;;2330303;54;21015;-67
2024/03/05 05:40:10;;;;;;;10.95;7.37;;;12.20;67.10;;;;;;2312884;54;20942;-65
2024/03/05 05:42:40;;;;;;;12.45;7.85;;;12.20;67.10;;;;;;2333800;54;21501;-67
2024/03/05 05:45:11;;;;;;;14.13;9.07;;;12.20;67.10;;;;;;2334746;54;21071;-66
2024/03/05 05:47:51;;;;;;;13.65;8.63;;;12.10;67.00;;;;;;2322807;54;21325;-68
2024/03/05 05:50:18;;;;;;;12.98;8.18;;;12.10;67.00;;;;;;2565183;53;21084;-68
2024/03/05 05:52:46;;;;;;;14.70;9.13;;;12.10;67.00;;;;;;2334469;54;21328;-65
2024/03/05 05:55:15;;;;;;;12.63;8.38;;;12.10;67.00;;;;;;2579094;53;20957;-67
2024/03/05 05:57:47;;;;;;;16.77;8.80;;;12.10;67.10;;;;;;2550388;53;21585;-66
2024/03/05 06:00:35;;;;;;;11.82;7.97;;;12.10;67.10;;;;;;2329509;54;20977;-65
2024/03/05 06:03:08;;;;;;;14.70;8.30;;;12.10;67.10;;;;;;2334506;54;21812;-65
2024/03/05 06:05:36;;;;;;;13.85;9.05;;;12.10;67.20;;;;;;2546863;54;21054;-68
2024/03/05 06:08:10;;;;;;;11.50;7.62;;;12.10;67.20;;;;;;2309300;54;21580;-67
2024/03/05 06:10:37;;;;;;;11.25;7.82;;;12.10;67.20;;;;;;2310386;55;20960;-66
2024/03/05 06:13:03;;;;;;;10.32;6.68;;;12.10;67.30;;;;;;2304977;55;21000;-66
2024/03/05 06:15:30;;;;;;;12.88;7.95;;;12.10;67.30;;;;;;2305234;55;21049;-65
2024/03/05 06:17:58;;;;;;;11.82;8.45;;;12.10;67.40;;;;;;2305802;55;21255;-68
2024/03/05 06:20:24;;;;;;;14.05;8.35;;;12.10;67.30;;;;;;2279751;55;21009;-65
2024/03/05 06:22:53;;;;;;;15.50;9.38;;;12.10;67.20;;;;;;2545499;54;21481;-66
2024/03/05 06:25:20;;;;;;;15.57;9.55;;;12.10;67.10;;;;;;2307038;55;21075;-68
2024/03/05 06:27:47;;;;;;;12.13;8.48;;;12.00;67.00;;;;;;2309455;55;21000;-65
2024/03/05 06:30:19;;;;;;;12.93;8.07;;;12.00;67.10;;;;;;2546222;54;20988;-65
2024/03/05 06:32:49;;;;;;;13.55;8.35;;;12.00;67.10;;;;;;2546585;54;21723;-68
2024/03/05 06:35:16;;;;;;;13.18;7.50;;;12.00;67.00;;;;;;2546935;54;21640;-67
2024/03/05 06:37:46;;;;;;;14.38;8.15;;;12.00;67.00;;;;;;2308171;54;21436;-66
2024/03/05 06:40:13;;;;;;;12.05;8.15;;;12.00;67.00;;;;;;2546541;54;21817;-66
2024/03/05 06:42:41;;;;;;;12.95;8.35;;;12.00;67.00;;;;;;2546581;54;21243;-66
2024/03/05 06:45:08;;;;;;;10.85;7.28;;;12.00;67.00;;;;;;2312012;54;21003;-67
2024/03/05 06:47:44;;;;;;;11.88;7.93;;;12.00;67.00;;;;;;2546101;54;20947;-67
2024/03/05 06:50:19;;;;;;;12.23;7.90;;;11.90;66.90;;;;;;2280702;55;21899;-69
2024/03/05 06:58:17;;;;;;;11.38;6.87;;;11.90;67.10;;;;;;2340022;54;21676;-67
2024/03/05 07:00:46;;;;;;;10.25;7.05;;;12.00;67.30;;;;;;2586588;53;21020;-66
2024/03/05 07:03:13;;;;;;;10.48;7.12;;;11.90;67.20;;;;;;2586044;53;21245;-64
2024/03/05 07:05:40;;;;;;;11.35;7.70;;;11.90;67.20;;;;;;2340633;54;21009;-67
2024/03/05 07:08:09;;;;;;;10.43;6.43;;;12.00;67.40;;;;;;2317841;54;21021;-68
2024/03/05 07:10:35;;;;;;;8.70;5.87;;;11.90;67.30;;;;;;2339697;54;20952;-66
2024/03/05 07:13:01;;;;;;;9.30;6.20;;;11.90;67.40;;;;;;2552966;53;20942;-68
2024/03/05 07:15:28;;;;;;;9.27;5.80;;;11.90;67.50;;;;;;2340375;54;21397;-67
2024/03/05 07:17:54;;;;;;;10.27;6.62;;;12.00;67.70;;;;;;2567918;53;20995;-68
2024/03/05 07:20:24;;;;;;;10.82;7.45;;;11.90;67.60;;;;;;2322337;54;21009;-68
2024/03/05 07:22:52;;;;;;;11.52;7.05;;;11.90;67.60;;;;;;2340228;54;20997;-67
2024/03/05 07:25:21;;;;;;;11.65;8.07;;;11.90;67.60;;;;;;2339662;54;20949;-67
2024/03/05 07:27:48;;;;;;;12.45;8.27;;;11.90;67.60;;;;;;2585916;53;20948;-67
2024/03/05 07:30:18;;;;;;;10.88;7.32;;;11.90;67.60;;;;;;2585587;53;20913;-66
2024/03/05 07:32:47;;;;;;;10.50;7.55;;;11.90;67.60;;;;;;2585796;53;21103;-65
2024/03/05 07:35:15;;;;;;;12.60;7.68;;;11.90;67.70;;;;;;2584990;53;20937;-66
2024/03/05 07:37:45;;;;;;;10.98;6.57;;;11.90;67.60;;;;;;2339954;54;20961;-66
2024/03/05 07:40:16;;;;;;;9.95;6.10;;;11.90;67.60;;;;;;2339658;54;20956;-66
2024/03/05 07:42:47;;;;;;;10.68;6.25;;;11.90;67.60;;;;;;2586689;53;21797;-66
2024/03/05 07:45:16;;;;;;;11.15;6.68;;;11.90;67.70;;;;;;2339656;54;20972;-66
2024/03/05 07:47:43;;;;;;;19.65;10.25;;;11.90;67.70;;;;;;2340383;54;21374;-66
2024/03/05 07:50:12;;;;;;;19.02;10.77;;;11.90;67.80;;;;;;2547009;54;21495;-65
2024/03/05 07:52:42;;;;;;;15.40;8.57;;;11.90;67.80;;;;;;2547140;54;20992;-66
2024/03/05 07:55:11;;;;;;;12.07;6.97;;;11.90;67.80;;;;;;2307625;54;21144;-65
2024/03/05 07:57:40;;;;;;;10.43;6.35;;;11.90;67.90;;;;;;2308297;54;21536;-66
2024/03/05 08:00:14;;;;;;;8.27;5.37;;;11.90;67.90;;;;;;2308300;54;21011;-66
2024/03/05 08:02:41;;;;;;;8.65;5.00;;;11.90;67.90;;;;;;2308442;54;20960;-65
2024/03/05 08:05:08;;;;;;;6.70;4.12;;;11.90;68.00;;;;;;2309211;54;21291;-65
2024/03/05 08:07:36;;;;;;;7.35;4.37;;;11.90;68.00;;;;;;2308778;54;21255;-66
2024/03/05 08:10:07;;;;;;;6.00;3.35;;;11.90;68.00;;;;;;2307736;54;21019;-65
2024/03/05 08:12:37;;;;;;;6.53;3.85;;;11.90;68.00;;;;;;2307357;54;21780;-66
2024/03/05 08:15:04;;;;;;;5.28;3.60;;;11.90;67.90;;;;;;2546336;54;21529;-67
2024/03/05 08:17:31;;;;;;;5.37;3.22;;;11.90;68.00;;;;;;2546698;54;21453;-65
2024/03/05 08:19:58;;;;;;;4.68;2.78;;;11.90;67.90;;;;;;2307297;54;21055;-66
2024/03/05 08:22:28;;;;;;;5.62;2.80;;;11.90;67.90;;;;;;2302122;55;20998;-66
2024/03/05 08:24:55;;;;;;;5.22;2.83;;;11.90;67.90;;;;;;2546548;54;20951;-66
2024/03/05 08:27:22;;;;;;;4.60;2.70;;;11.90;67.90;;;;;;2546630;54;21721;-66
2024/03/05 08:29:51;;;;;;;5.60;2.55;;;11.90;67.90;;;;;;2308024;54;20983;-65
2024/03/05 08:32:17;;;;;;;4.57;2.78;;;11.90;67.90;;;;;;2307223;54;20928;-65
2024/03/05 08:34:43;;;;;;;4.72;2.70;;;11.90;68.00;;;;;;2546896;54;21454;-65
2024/03/05 08:37:11;;;;;;;4.20;2.58;;;11.90;67.90;;;;;;2308062;54;21551;-66
2024/03/05 08:39:40;;;;;;;4.47;2.55;;;11.90;67.80;;;;;;2308680;54;20955;-65
2024/03/05 08:42:07;;;;;;;4.18;2.40;;;11.90;67.80;;;;;;2547107;54;20994;-65
2024/03/05 08:44:34;;;;;;;4.95;2.37;;;11.90;67.80;;;;;;2308044;54;20990;-66
2024/03/05 08:47:00;;;;;;;4.20;2.30;;;11.90;67.90;;;;;;2547190;54;21271;-66
2024/03/05 08:49:26;;;;;;;4.45;2.30;;;11.90;67.90;;;;;;2307813;54;21058;-65
2024/03/05 08:51:53;;;;;;;3.92;2.30;;;11.90;68.00;;;;;;2307876;54;21822;-66
2024/03/05 08:54:20;;;;;;;3.60;2.10;;;11.90;68.00;;;;;;2307725;54;21007;-64
2024/03/05 08:56:47;;;;;;;4.70;2.75;;;11.90;68.10;;;;;;2308340;54;21814;-67
2024/03/05 08:59:13;;;;;;;4.55;2.30;;;11.90;68.20;;;;;;2307751;54;20951;-66
2024/03/05 09:01:40;;;;;;;4.03;2.00;;;11.90;68.20;;;;;;2307229;54;21067;-65
2024/03/05 09:04:06;;;;;;;4.60;2.42;;;11.90;68.20;;;;;;2517449;54;20975;-66
2024/03/05 09:06:33;;;;;;;5.30;2.65;;;11.90;68.20;;;;;;2307932;54;21022;-66
2024/03/05 09:08:59;;;;;;;5.80;2.92;;;11.90;68.30;;;;;;2308433;54;21374;-64
2024/03/05 09:11:25;;;;;;;5.47;2.78;;;11.90;68.40;;;;;;2307706;54;21432;-66
2024/03/05 09:13:52;;;;;;;4.18;2.67;;;11.90;68.40;;;;;;2547069;54;21359;-67
2024/03/05 09:16:18;;;;;;;3.92;2.33;;;11.90;68.40;;;;;;2546511;54;20951;-65
2024/03/05 09:18:46;;;;;;;3.72;2.12;;;11.90;68.50;;;;;;2308209;54;21680;-65
2024/03/05 09:21:14;;;;;;;3.90;2.10;;;11.90;68.70;;;;;;2307598;54;21043;-65
2024/03/05 09:23:40;;;;;;;3.60;1.80;;;11.90;68.80;;;;;;2308051;54;20965;-66
2024/03/05 09:26:10;;;;;;;2.97;1.70;;;11.90;68.80;;;;;;2545951;53;21763;-66
2024/03/05 09:28:36;;;;;;;5.25;2.00;;;11.90;68.80;;;;;;2306909;55;21411;-66
2024/03/05 09:31:03;;;;;;;3.55;1.60;;;11.90;68.90;;;;;;2305966;55;20972;-64
2024/03/05 09:33:30;;;;;;;2.75;1.45;;;11.90;69.00;;;;;;2305296;55;21082;-65
2024/03/05 09:35:58;;;;;;;2.83;1.40;;;12.00;69.20;;;;;;2306715;55;20973;-65
2024/03/05 09:38:29;;;;;;;4.45;1.60;;;12.00;69.30;;;;;;2307300;54;20953;-65
2024/03/05 09:40:55;;;;;;;3.12;1.60;;;12.00;69.30;;;;;;2308382;54;21060;-65
2024/03/05 09:43:25;;;;;;;3.20;1.77;;;12.00;69.20;;;;;;2545919;54;21003;-65
2024/03/05 09:45:51;;;;;;;3.70;1.70;;;12.00;69.10;;;;;;2547002;54;21007;-65
2024/03/05 09:48:18;;;;;;;2.80;1.52;;;12.10;69.20;;;;;;2546428;54;20996;-66
2024/03/05 09:50:47;;;;;;;3.65;1.70;;;12.10;69.30;;;;;;2306865;55;20968;-66
2024/03/05 09:53:18;;;;;;;3.03;1.60;;;12.10;69.30;;;;;;2545014;54;20987;-65
2024/03/05 09:55:44;;;;;;;4.65;2.10;;;12.10;69.50;;;;;;2305819;55;21355;-65
2024/03/05 09:58:10;;;;;;;4.65;2.78;;;12.10;69.70;;;;;;2315317;54;21316;-65
2024/03/05 10:00:37;;;;;;;3.92;2.22;;;12.20;69.90;;;;;;2307847;55;20983;-65
2024/03/05 10:03:05;;;;;;;3.55;1.90;;;12.20;70.00;;;;;;2308154;55;21371;-66
2024/03/05 10:05:31;;;;;;;3.40;1.98;;;12.20;70.10;;;;;;2307917;55;20964;-64
2024/03/05 10:07:58;;;;;;;5.50;2.35;;;12.30;70.40;;;;;;2282362;55;20940;-65
2024/03/05 10:10:26;;;;;;;3.95;1.85;;;12.30;70.50;;;;;;2310748;55;20936;-66
2024/03/05 10:12:52;;;;;;;4.28;2.35;;;12.40;70.70;;;;;;2307896;55;20957;-64
2024/03/05 10:15:21;;;;;;;5.20;2.42;;;12.50;71.00;;;;;;2307648;55;21051;-65
2024/03/05 10:17:49;;;;;;;4.50;2.75;;;12.50;70.90;;;;;;2308535;55;20991;-66
2024/03/05 10:20:32;;;;;;;4.72;2.70;;;12.60;70.80;;;;;;2307662;54;21251;-67
2024/03/05 10:23:00;;;;;;;3.30;2.00;;;12.70;70.10;;;;;;2308342;54;21548;-65
2024/03/05 10:25:28;;;;;;;4.28;2.12;;;12.70;70.30;;;;;;2300554;54;21023;-66
2024/03/05 10:27:55;;;;;;;4.65;1.90;;;12.80;70.20;;;;;;2307578;54;21043;-64
2024/03/05 10:30:31;;;;;;;4.10;2.28;;;12.90;70.20;;;;;;2307493;54;21761;-65
2024/03/05 10:33:01;;;;;;;3.25;1.77;;;12.80;69.80;;;;;;2307879;54;21262;-66
2024/03/05 10:35:31;;;;;;;3.65;1.95;;;12.90;70.00;;;;;;2307250;54;21500;-67
2024/03/05 10:38:05;;;;;;;4.47;2.22;;;12.90;69.90;;;;;;2308123;54;21038;-65
2024/03/05 10:40:32;;;;;;;3.37;2.00;;;13.00;69.70;;;;;;2546652;54;21759;-66
2024/03/05 10:43:01;;;;;;;4.80;2.05;;;13.00;69.70;;;;;;2547323;54;21279;-65
2024/03/05 10:45:27;;;;;;;3.53;1.83;;;13.00;69.60;;;;;;2546802;54;20943;-66
2024/03/05 10:47:53;;;;;;;3.60;2.03;;;13.00;69.30;;;;;;2308264;54;22046;-66
2024/03/05 10:50:20;;;;;;;4.82;1.98;;;13.00;69.20;;;;;;2302899;55;20939;-67
2024/03/05 10:52:49;;;;;;;4.53;1.90;;;13.10;69.30;;;;;;2307344;54;21024;-66
2024/03/05 10:55:17;;;;;;;4.10;1.90;;;13.10;69.00;;;;;;2307594;54;20955;-65
2024/03/05 11:00:28;;;;;;;3.85;2.00;;;12.90;68.60;;;;;;2307700;54;20956;-65
2024/03/05 11:02:57;;;;;;;3.42;1.87;;;13.10;68.80;;;;;;2308164;54;21291;-67
2024/03/05 11:05:29;;;;;;;4.15;2.10;;;13.10;68.70;;;;;;2307370;54;21178;-65
2024/03/05 11:07:57;;;;;;;3.78;2.10;;;13.10;68.70;;;;;;2308006;54;21004;-66
2024/03/05 11:10:24;;;;;;;4.40;1.80;;;13.10;68.70;;;;;;2307640;54;20939;-66
2024/03/05 11:12:50;;;;;;;3.92;2.10;;;13.10;68.60;;;;;;2308097;54;20923;-67
2024/03/05 11:15:17;;;;;;;3.30;1.83;;;13.00;68.50;;;;;;2551886;53;20927;-65
2024/03/05 11:17:44;;;;;;;4.78;2.33;;;13.10;68.40;;;;;;2327564;55;20984;-66
2024/03/05 11:20:36;;;;;;;3.80;1.85;;;13.00;68.50;;;;;;2325210;54;21781;-66
2024/03/05 11:23:04;;;;;;;4.12;1.77;;;13.00;68.70;;;;;;2586186;53;21448;-66
2024/03/05 11:25:32;;;;;;;3.35;1.70;;;13.00;68.80;;;;;;2339438;54;20984;-66
2024/03/05 11:27:59;;;;;;;3.55;2.08;;;13.10;69.10;;;;;;2586250;53;20932;-67
2024/03/05 11:30:29;;;;;;;4.00;2.20;;;13.10;68.90;;;;;;2585671;53;21048;-66
2024/03/05 11:32:55;;;;;;;3.90;2.10;;;13.10;68.70;;;;;;2586011;53;20948;-67
2024/03/05 11:35:25;;;;;;;4.10;1.90;;;13.10;68.70;;;;;;2585406;53;21371;-66
2024/03/05 11:37:55;;;;;;;3.50;1.70;;;13.10;68.70;;;;;;2339992;54;21185;-65
2024/03/05 11:40:34;;;;;;;3.83;1.80;;;13.10;68.70;;;;;;2585872;53;21825;-66
2024/03/05 11:43:09;;;;;;;4.47;1.75;;;13.20;68.50;;;;;;2586335;53;20993;-65
2024/03/05 11:45:51;;;;;;;4.25;2.20;;;13.10;68.70;;;;;;2585400;53;21000;-67
2024/03/05 11:48:20;;;;;;;4.78;2.35;;;13.10;68.40;;;;;;2339585;54;20941;-67
2024/03/05 11:50:47;;;;;;;5.10;1.98;;;13.20;68.60;;;;;;2339711;54;20936;-66
2024/03/05 11:53:15;;;;;;;5.85;2.90;;;13.20;69.00;;;;;;2585276;53;21486;-66
2024/03/05 11:55:44;;;;;;;6.03;3.05;;;13.20;68.80;;;;;;2586180;53;21521;-65
2024/03/05 11:58:11;;;;;;;44.20;20.02;;;13.20;68.80;;;;;;2586312;53;21378;-65
2024/03/05 12:00:40;;;;;;;41.03;18.15;;;13.20;68.90;;;;;;2585595;53;20937;-66
2024/03/05 12:03:06;;;;;;;20.85;10.30;;;13.20;68.70;;;;;;2340006;54;20980;-65
2024/03/05 12:05:33;;;;;;;11.52;6.00;;;13.30;68.70;;;;;;2585436;53;20964;-66
2024/03/05 12:08:06;;;;;;;8.75;4.50;;;13.30;68.70;;;;;;2342594;54;21020;-65
2024/03/05 12:10:35;;;;;;;7.30;4.05;;;13.30;68.70;;;;;;2314805;54;21304;-66
2024/03/05 12:13:04;;;;;;;5.80;3.03;;;13.30;68.80;;;;;;2586378;53;21379;-65
2024/03/05 12:15:32;;;;;;;4.72;2.25;;;13.40;68.80;;;;;;2339769;54;20960;-66
2024/03/05 12:18:05;;;;;;;3.60;1.92;;;13.40;68.90;;;;;;2339613;54;21020;-66
2024/03/05 12:20:31;;;;;;;2.95;1.60;;;13.40;68.80;;;;;;2585290;53;21296;-66
2024/03/05 12:22:57;;;;;;;3.47;1.80;;;13.50;69.20;;;;;;2335196;54;21074;-66
2024/03/05 12:25:27;;;;;;;3.30;1.62;;;13.40;69.20;;;;;;2320800;55;20941;-65
2024/03/05 12:27:53;;;;;;;4.22;1.73;;;13.50;69.20;;;;;;2533308;54;21522;-66
2024/03/05 12:30:19;;;;;;;3.10;1.52;;;13.50;69.30;;;;;;2577118;53;20941;-65
2024/03/05 12:32:52;;;;;;;2.75;1.30;;;13.50;69.50;;;;;;2340408;54;20969;-66
2024/03/05 12:35:20;;;;;;;2.75;1.27;;;13.60;69.50;;;;;;2340036;54;20937;-66
2024/03/05 12:37:52;;;;;;;4.10;1.60;;;13.70;69.80;;;;;;2340316;54;21033;-66
2024/03/05 12:40:21;;;;;;;2.58;1.10;;;13.70;69.90;;;;;;2586187;53;21724;-65
2024/03/05 12:42:51;;;;;;;2.50;1.15;;;13.80;70.00;;;;;;2340462;54;21325;-66
2024/03/05 12:45:21;;;;;;;6.50;1.02;;;13.90;70.10;;;;;;2331100;54;20922;-66
2024/03/05 12:48:00;;;;;;;2.22;1.00;;;13.90;70.10;;;;;;2325759;54;21802;-66
2024/03/05 12:50:27;;;;;;;2.10;0.80;;;14.00;69.40;;;;;;2339196;54;20977;-66
2024/03/05 12:53:03;;;;;;;1.80;0.82;;;14.10;69.80;;;;;;2339843;54;20960;-65